sensor_id;sensor_type;location;lat;lon;timestamp;pressure;altitude;pressure_sealevel;temperature;humidity
44044;BME280;29709;52.396;16.796;2023-04-26T00:01:56;101210.57;;;7.76;60.86
44044;BME280;29709;52.396;16.796;2023-04-26T00:05:10;101208.82;;;7.65;60.73
44044;BME280;29709;52.396;16.796;2023-04-26T00:08:23;101203.45;;;7.54;61.05
44044;BME280;29709;52.396;16.796;2023-04-26T00:11:36;101199.68;;;7.45;61.43
44044;BME280;29709;52.396;16.796;2023-04-26T00:14:49;101209.00;;;7.33;61.51
44044;BME280;29709;52.396;16.796;2023-04-26T00:18:03;101203.63;;;7.22;62.04
44044;BME280;29709;52.396;16.796;2023-04-26T00:21:16;101203.15;;;7.17;62.02
44044;BME280;29709;52.396;16.796;2023-04-26T00:24:29;101210.48;;;7.16;61.70
44044;BME280;29709;52.396;16.796;2023-04-26T00:27:42;101205.73;;;7.09;61.60
44044;BME280;29709;52.396;16.796;2023-04-26T00:30:56;101207.84;;;7.05;61.34
44044;BME280;29709;52.396;16.796;2023-04-26T00:34:09;101224.66;;;7.01;61.65
44044;BME280;29709;52.396;16.796;2023-04-26T00:37:22;101220.30;;;6.98;61.67
44044;BME280;29709;52.396;16.796;2023-04-26T00:40:36;101216.85;;;6.96;61.75
44044;BME280;29709;52.396;16.796;2023-04-26T00:43:50;101213.98;;;6.98;61.76
44044;BME280;29709;52.396;16.796;2023-04-26T00:47:03;101216.71;;;6.98;61.49
44044;BME280;29709;52.396;16.796;2023-04-26T00:50:16;101220.86;;;6.92;61.81
44044;BME280;29709;52.396;16.796;2023-04-26T00:53:30;101218.79;;;6.84;62.13
44044;BME280;29709;52.396;16.796;2023-04-26T00:56:44;101225.54;;;6.80;61.93
44044;BME280;29709;52.396;16.796;2023-04-26T00:59:57;101233.12;;;6.77;62.31
44044;BME280;29709;52.396;16.796;2023-04-26T01:03:11;101235.26;;;6.73;62.75
44044;BME280;29709;52.396;16.796;2023-04-26T01:06:24;101239.41;;;6.68;63.01
44044;BME280;29709;52.396;16.796;2023-04-26T01:09:38;101236.31;;;6.61;62.91
44044;BME280;29709;52.396;16.796;2023-04-26T01:12:53;101237.70;;;6.55;63.13
44044;BME280;29709;52.396;16.796;2023-04-26T01:16:07;101234.64;;;6.49;62.77
44044;BME280;29709;52.396;16.796;2023-04-26T01:19:20;101228.84;;;6.42;63.25
44044;BME280;29709;52.396;16.796;2023-04-26T01:22:34;101231.57;;;6.42;62.97
44044;BME280;29709;52.396;16.796;2023-04-26T01:25:48;101227.97;;;6.42;62.73
44044;BME280;29709;52.396;16.796;2023-04-26T01:32:25;101234.56;;;6.39;62.81
44044;BME280;29709;52.396;16.796;2023-04-26T01:35:38;101232.48;;;6.31;62.85
44044;BME280;29709;52.396;16.796;2023-04-26T01:38:51;101232.48;;;6.31;63.03
44044;BME280;29709;52.396;16.796;2023-04-26T01:42:04;101233.48;;;6.30;62.87
44044;BME280;29709;52.396;16.796;2023-04-26T01:45:18;101240.95;;;6.28;63.22
44044;BME280;29709;52.396;16.796;2023-04-26T01:48:31;101233.02;;;6.25;62.99
44044;BME280;29709;52.396;16.796;2023-04-26T01:51:44;101242.80;;;6.28;62.56
44044;BME280;29709;52.396;16.796;2023-04-26T01:54:57;101242.71;;;6.18;63.03
44044;BME280;29709;52.396;16.796;2023-04-26T01:58:10;101244.21;;;6.11;63.53
44044;BME280;29709;52.396;16.796;2023-04-26T02:01:23;101244.62;;;6.06;63.11
44044;BME280;29709;52.396;16.796;2023-04-26T02:04:37;101245.62;;;6.05;62.94
44044;BME280;29709;52.396;16.796;2023-04-26T02:07:50;101248.84;;;5.99;63.31
44044;BME280;29709;52.396;16.796;2023-04-26T02:11:03;101246.61;;;5.93;63.44
44044;BME280;29709;52.396;16.796;2023-04-26T02:14:16;101244.65;;;5.84;63.15
44044;BME280;29709;52.396;16.796;2023-04-26T02:17:29;101240.55;;;5.78;64.05
44044;BME280;29709;52.396;16.796;2023-04-26T02:20:43;101250.33;;;5.81;63.50
44044;BME280;29709;52.396;16.796;2023-04-26T02:23:57;101253.18;;;5.79;63.52
44044;BME280;29709;52.396;16.796;2023-04-26T02:27:10;101242.90;;;5.72;63.57
44044;BME280;29709;52.396;16.796;2023-04-26T02:30:23;101246.89;;;5.68;63.49
44044;BME280;29709;52.396;16.796;2023-04-26T02:33:37;101243.18;;;5.58;64.07
44044;BME280;29709;52.396;16.796;2023-04-26T02:36:50;101238.98;;;5.54;64.22
44044;BME280;29709;52.396;16.796;2023-04-26T02:40:05;101241.94;;;5.50;64.81
44044;BME280;29709;52.396;16.796;2023-04-26T02:43:18;101239.85;;;5.54;64.45
44044;BME280;29709;52.396;16.796;2023-04-26T02:46:31;101245.16;;;5.56;64.33
44044;BME280;29709;52.396;16.796;2023-04-26T02:49:44;101243.05;;;5.48;64.85
44044;BME280;29709;52.396;16.796;2023-04-26T02:52:58;101245.31;;;5.43;64.47
44044;BME280;29709;52.396;16.796;2023-04-26T02:56:11;101251.86;;;5.40;64.80
44044;BME280;29709;52.396;16.796;2023-04-26T02:59:24;101246.52;;;5.39;65.37
44044;BME280;29709;52.396;16.796;2023-04-26T03:02:38;101251.98;;;5.39;65.14
44044;BME280;29709;52.396;16.796;2023-04-26T03:05:51;101257.82;;;5.34;65.10
44044;BME280;29709;52.396;16.796;2023-04-26T03:09:04;101260.54;;;5.34;65.01
44044;BME280;29709;52.396;16.796;2023-04-26T03:12:17;101250.50;;;5.35;65.29
44044;BME280;29709;52.396;16.796;2023-04-26T03:15:30;101262.88;;;5.39;64.96
44044;BME280;29709;52.396;16.796;2023-04-26T03:18:43;101265.00;;;5.35;64.71
44044;BME280;29709;52.396;16.796;2023-04-26T03:21:57;101267.73;;;5.24;65.40
44044;BME280;29709;52.396;16.796;2023-04-26T03:25:10;101265.34;;;5.19;65.14
44044;BME280;29709;52.396;16.796;2023-04-26T03:28:23;101269.57;;;5.12;66.17
44044;BME280;29709;52.396;16.796;2023-04-26T03:31:36;101267.93;;;5.10;65.91
44044;BME280;29709;52.396;16.796;2023-04-26T03:34:50;101267.06;;;5.09;65.79
44044;BME280;29709;52.396;16.796;2023-04-26T03:38:03;101265.84;;;5.02;66.31
44044;BME280;29709;52.396;16.796;2023-04-26T03:41:16;101279.67;;;4.99;66.31
44044;BME280;29709;52.396;16.796;2023-04-26T03:44:29;101280.45;;;5.01;66.05
44044;BME280;29709;52.396;16.796;2023-04-26T03:47:42;101277.83;;;5.00;66.73
44044;BME280;29709;52.396;16.796;2023-04-26T03:50:55;101286.87;;;5.00;66.46
44044;BME280;29709;52.396;16.796;2023-04-26T03:54:09;101280.18;;;4.93;66.72
44044;BME280;29709;52.396;16.796;2023-04-26T03:57:23;101278.70;;;5.00;66.98
44044;BME280;29709;52.396;16.796;2023-04-26T04:00:37;101286.98;;;4.99;67.51
44044;BME280;29709;52.396;16.796;2023-04-26T04:03:50;101294.42;;;4.97;67.37
44044;BME280;29709;52.396;16.796;2023-04-26T04:07:03;101301.38;;;5.01;66.81
44044;BME280;29709;52.396;16.796;2023-04-26T04:10:16;101298.53;;;5.02;67.09
44044;BME280;29709;52.396;16.796;2023-04-26T04:13:29;101301.00;;;5.05;66.77
44044;BME280;29709;52.396;16.796;2023-04-26T04:16:43;101306.33;;;5.07;67.16
44044;BME280;29709;52.396;16.796;2023-04-26T04:19:56;101310.31;;;5.14;67.34
44044;BME280;29709;52.396;16.796;2023-04-26T04:23:09;101297.18;;;5.19;66.64
44044;BME280;29709;52.396;16.796;2023-04-26T04:26:22;101298.05;;;5.19;67.11
44044;BME280;29709;52.396;16.796;2023-04-26T04:29:35;101313.31;;;5.22;67.32
44044;BME280;29709;52.396;16.796;2023-04-26T04:32:49;101310.20;;;5.27;67.01
44044;BME280;29709;52.396;16.796;2023-04-26T04:36:02;101329.28;;;5.27;67.89
44044;BME280;29709;52.396;16.796;2023-04-26T04:39:15;101316.17;;;5.32;67.56
44044;BME280;29709;52.396;16.796;2023-04-26T04:42:29;101316.66;;;5.37;67.64
44044;BME280;29709;52.396;16.796;2023-04-26T04:45:42;101319.65;;;5.45;66.90
44044;BME280;29709;52.396;16.796;2023-04-26T04:48:55;101323.24;;;5.45;67.04
44044;BME280;29709;52.396;16.796;2023-04-26T04:52:08;101320.01;;;5.51;67.12
44044;BME280;29709;52.396;16.796;2023-04-26T04:55:22;101323.24;;;5.57;66.29
44044;BME280;29709;52.396;16.796;2023-04-26T04:58:35;101328.58;;;5.58;66.70
44044;BME280;29709;52.396;16.796;2023-04-26T05:01:49;101332.42;;;5.67;67.16
44044;BME280;29709;52.396;16.796;2023-04-26T05:05:03;101332.04;;;5.71;66.92
44044;BME280;29709;52.396;16.796;2023-04-26T05:08:17;101336.74;;;5.80;66.77
44044;BME280;29709;52.396;16.796;2023-04-26T05:11:30;101326.09;;;5.89;66.98
44044;BME280;29709;52.396;16.796;2023-04-26T05:14:44;101335.55;;;5.96;66.87
44044;BME280;29709;52.396;16.796;2023-04-26T05:17:57;101343.84;;;6.05;66.52
44044;BME280;29709;52.396;16.796;2023-04-26T05:21:11;101341.34;;;6.14;66.48
44044;BME280;29709;52.396;16.796;2023-04-26T05:24:24;101343.56;;;6.20;66.23
44044;BME280;29709;52.396;16.796;2023-04-26T05:27:37;101346.40;;;6.29;66.50
44044;BME280;29709;52.396;16.796;2023-04-26T05:30:50;101358.49;;;6.59;65.62
44044;BME280;29709;52.396;16.796;2023-04-26T05:34:05;101356.03;;;6.88;65.10
44044;BME280;29709;52.396;16.796;2023-04-26T05:37:18;101363.84;;;7.13;64.92
44044;BME280;29709;52.396;16.796;2023-04-26T05:40:31;101358.58;;;7.42;64.32
44044;BME280;29709;52.396;16.796;2023-04-26T05:43:46;101354.14;;;7.72;63.52
44044;BME280;29709;52.396;16.796;2023-04-26T05:46:59;101361.55;;;7.91;62.57
44044;BME280;29709;52.396;16.796;2023-04-26T05:50:12;101365.80;;;8.04;62.10
44044;BME280;29709;52.396;16.796;2023-04-26T05:53:26;101362.05;;;8.36;61.64
44044;BME280;29709;52.396;16.796;2023-04-26T05:56:39;101376.52;;;8.57;61.52
44044;BME280;29709;52.396;16.796;2023-04-26T05:59:52;101371.02;;;8.57;59.94
44044;BME280;29709;52.396;16.796;2023-04-26T06:03:05;101370.63;;;8.31;59.67
44044;BME280;29709;52.396;16.796;2023-04-26T06:06:19;101369.34;;;8.26;61.18
44044;BME280;29709;52.396;16.796;2023-04-26T06:09:32;101370.86;;;8.49;60.70
44044;BME280;29709;52.396;16.796;2023-04-26T06:12:45;101371.17;;;8.56;60.58
44044;BME280;29709;52.396;16.796;2023-04-26T06:15:59;101371.47;;;8.72;60.24
44044;BME280;29709;52.396;16.796;2023-04-26T06:19:12;101369.05;;;8.88;59.51
44044;BME280;29709;52.396;16.796;2023-04-26T06:22:25;101361.09;;;9.05;59.35
44044;BME280;29709;52.396;16.796;2023-04-26T06:25:38;101359.35;;;9.23;58.95
44044;BME280;29709;52.396;16.796;2023-04-26T06:28:57;101370.47;;;9.31;58.03
44044;BME280;29709;52.396;16.796;2023-04-26T06:32:10;101365.55;;;9.25;57.69
44044;BME280;29709;52.396;16.796;2023-04-26T06:35:23;101367.73;;;9.31;57.38
44044;BME280;29709;52.396;16.796;2023-04-26T06:38:37;101372.03;;;9.43;56.58
44044;BME280;29709;52.396;16.796;2023-04-26T06:41:51;101373.63;;;9.26;55.54
44044;BME280;29709;52.396;16.796;2023-04-26T06:45:04;101385.20;;;9.30;56.39
44044;BME280;29709;52.396;16.796;2023-04-26T06:48:18;101344.37;;;9.17;56.33
44044;BME280;29709;52.396;16.796;2023-04-26T06:51:32;101386.33;;;9.37;55.84
44044;BME280;29709;52.396;16.796;2023-04-26T06:54:45;101385.20;;;9.40;55.95
44044;BME280;29709;52.396;16.796;2023-04-26T06:57:58;101387.91;;;9.59;56.63
44044;BME280;29709;52.396;16.796;2023-04-26T07:01:12;101387.18;;;9.47;55.64
44044;BME280;29709;52.396;16.796;2023-04-26T07:04:25;101387.78;;;9.41;55.10
44044;BME280;29709;52.396;16.796;2023-04-26T07:07:38;101395.01;;;9.33;55.56
44044;BME280;29709;52.396;16.796;2023-04-26T07:10:51;101389.08;;;9.37;55.12
44044;BME280;29709;52.396;16.796;2023-04-26T07:14:04;101389.81;;;9.39;54.87
44044;BME280;29709;52.396;16.796;2023-04-26T07:17:18;101389.02;;;9.66;55.39
44044;BME280;29709;52.396;16.796;2023-04-26T07:20:33;101381.20;;;9.81;54.59
44044;BME280;29709;52.396;16.796;2023-04-26T07:23:47;101396.39;;;9.66;54.46
44044;BME280;29709;52.396;16.796;2023-04-26T07:27:00;101393.26;;;9.51;53.95
44044;BME280;29709;52.396;16.796;2023-04-26T07:30:15;101397.03;;;9.40;53.42
44044;BME280;29709;52.396;16.796;2023-04-26T07:33:28;101408.38;;;9.65;53.98
44044;BME280;29709;52.396;16.796;2023-04-26T07:36:41;101393.23;;;9.61;54.21
44044;BME280;29709;52.396;16.796;2023-04-26T07:39:54;101407.69;;;9.53;53.94
44044;BME280;29709;52.396;16.796;2023-04-26T07:43:07;101414.34;;;9.50;54.98
44044;BME280;29709;52.396;16.796;2023-04-26T07:46:21;101407.91;;;9.79;54.79
44044;BME280;29709;52.396;16.796;2023-04-26T07:49:35;101404.06;;;10.09;54.34
44044;BME280;29709;52.396;16.796;2023-04-26T07:52:49;101411.00;;;10.23;53.19
44044;BME280;29709;52.396;16.796;2023-04-26T07:56:04;101411.23;;;10.29;52.54
44044;BME280;29709;52.396;16.796;2023-04-26T07:59:19;101413.13;;;10.19;52.46
44044;BME280;29709;52.396;16.796;2023-04-26T08:02:32;101425.99;;;10.19;52.42
44044;BME280;29709;52.396;16.796;2023-04-26T08:05:45;101418.97;;;10.06;52.33
44044;BME280;29709;52.396;16.796;2023-04-26T08:08:59;101422.38;;;10.28;52.22
44044;BME280;29709;52.396;16.796;2023-04-26T08:12:12;101423.70;;;10.51;50.95
44044;BME280;29709;52.396;16.796;2023-04-26T08:15:25;101429.95;;;10.53;49.98
44044;BME280;29709;52.396;16.796;2023-04-26T08:18:38;101421.48;;;10.64;50.59
44044;BME280;29709;52.396;16.796;2023-04-26T08:21:52;101424.02;;;10.76;50.31
44044;BME280;29709;52.396;16.796;2023-04-26T08:26:03;101421.94;;;11.05;49.91
44044;BME280;29709;52.396;16.796;2023-04-26T08:29:16;101420.56;;;11.45;49.59
44044;BME280;29709;52.396;16.796;2023-04-26T08:32:30;101421.48;;;11.71;46.30
44044;BME280;29709;52.396;16.796;2023-04-26T08:35:46;101426.55;;;11.58;47.09
44044;BME280;29709;52.396;16.796;2023-04-26T08:39:00;101436.63;;;11.14;46.31
44044;BME280;29709;52.396;16.796;2023-04-26T08:42:15;101431.77;;;11.25;47.41
44044;BME280;29709;52.396;16.796;2023-04-26T08:45:30;101421.18;;;11.56;47.54
44044;BME280;29709;52.396;16.796;2023-04-26T08:48:48;101426.99;;;11.71;46.42
44044;BME280;29709;52.396;16.796;2023-04-26T08:52:07;101432.83;;;11.68;44.19
44044;BME280;29709;52.396;16.796;2023-04-26T08:55:22;101423.23;;;11.54;44.67
44044;BME280;29709;52.396;16.796;2023-04-26T08:58:37;101428.83;;;11.45;43.42
44044;BME280;29709;52.396;16.796;2023-04-26T09:01:52;101437.57;;;11.40;45.45
44044;BME280;29709;52.396;16.796;2023-04-26T09:05:06;101436.01;;;11.38;45.99
44044;BME280;29709;52.396;16.796;2023-04-26T09:08:19;101427.05;;;11.18;45.36
44044;BME280;29709;52.396;16.796;2023-04-26T09:14:59;101435.50;;;10.89;45.81
44044;BME280;29709;52.396;16.796;2023-04-26T09:18:17;101441.80;;;10.99;45.61
44044;BME280;29709;52.396;16.796;2023-04-26T09:21:31;101443.23;;;11.21;45.08
44044;BME280;29709;52.396;16.796;2023-04-26T09:24:50;101434.65;;;11.60;44.39
44044;BME280;29709;52.396;16.796;2023-04-26T09:31:40;101424.73;;;12.19;43.05
44044;BME280;29709;52.396;16.796;2023-04-26T09:34:53;101431.44;;;12.50;43.49
44044;BME280;29709;52.396;16.796;2023-04-26T09:38:12;101433.02;;;12.53;43.05
44044;BME280;29709;52.396;16.796;2023-04-26T09:44:49;101444.17;;;12.09;42.97
44044;BME280;29709;52.396;16.796;2023-04-26T09:48:12;101446.02;;;11.65;42.41
44044;BME280;29709;52.396;16.796;2023-04-26T09:51:26;101440.23;;;11.50;43.38
44044;BME280;29709;52.396;16.796;2023-04-26T09:54:46;101445.17;;;11.82;43.63
44044;BME280;29709;52.396;16.796;2023-04-26T09:58:08;101447.65;;;12.19;43.80
44044;BME280;29709;52.396;16.796;2023-04-26T10:01:23;101436.43;;;12.47;42.77
44044;BME280;29709;52.396;16.796;2023-04-26T10:04:37;101441.99;;;12.55;41.39
44044;BME280;29709;52.396;16.796;2023-04-26T10:07:50;101443.55;;;12.23;40.35
44044;BME280;29709;52.396;16.796;2023-04-26T10:11:04;101454.53;;;11.89;40.09
44044;BME280;29709;52.396;16.796;2023-04-26T10:14:20;101447.46;;;11.69;41.34
44044;BME280;29709;52.396;16.796;2023-04-26T10:17:33;101462.80;;;11.36;42.18
44044;BME280;29709;52.396;16.796;2023-04-26T10:20:50;101455.02;;;11.13;42.93
44044;BME280;29709;52.396;16.796;2023-04-26T10:24:05;101452.25;;;11.13;42.91
44044;BME280;29709;52.396;16.796;2023-04-26T10:34:19;101460.28;;;11.60;40.96
44044;BME280;29709;52.396;16.796;2023-04-26T10:37:33;101452.57;;;12.07;42.38
44044;BME280;29709;52.396;16.796;2023-04-26T10:40:46;101454.98;;;12.36;42.91
44044;BME280;29709;52.396;16.796;2023-04-26T10:47:34;101445.27;;;12.58;39.75
44044;BME280;29709;52.396;16.796;2023-04-26T10:54:21;101449.74;;;12.51;39.88
44044;BME280;29709;52.396;16.796;2023-04-26T11:01:05;101462.91;;;12.31;41.22
44044;BME280;29709;52.396;16.796;2023-04-26T11:04:19;101459.52;;;12.46;40.03
44044;BME280;29709;52.396;16.796;2023-04-26T11:07:36;101457.97;;;12.85;39.87
44044;BME280;29709;52.396;16.796;2023-04-26T11:10:56;101458.72;;;13.12;39.72
44044;BME280;29709;52.396;16.796;2023-04-26T11:14:10;101463.66;;;12.84;39.31
44044;BME280;29709;52.396;16.796;2023-04-26T11:17:24;101473.23;;;12.63;38.98
44044;BME280;29709;52.396;16.796;2023-04-26T11:20:37;101470.66;;;12.36;40.27
44044;BME280;29709;52.396;16.796;2023-04-26T11:23:54;101474.96;;;12.30;39.16
44044;BME280;29709;52.396;16.796;2023-04-26T11:27:09;101485.76;;;12.24;38.73
44044;BME280;29709;52.396;16.796;2023-04-26T11:30:23;101473.28;;;12.11;39.07
44044;BME280;29709;52.396;16.796;2023-04-26T11:33:37;101490.56;;;11.78;39.46
44044;BME280;29709;52.396;16.796;2023-04-26T11:36:53;101489.30;;;11.72;40.40
44044;BME280;29709;52.396;16.796;2023-04-26T11:40:09;101482.92;;;11.72;40.07
44044;BME280;29709;52.396;16.796;2023-04-26T11:46:49;101487.16;;;12.02;40.68
44044;BME280;29709;52.396;16.796;2023-04-26T11:50:02;101483.52;;;12.27;40.73
44044;BME280;29709;52.396;16.796;2023-04-26T11:53:16;101481.07;;;12.50;40.49
44044;BME280;29709;52.396;16.796;2023-04-26T11:56:29;101490.99;;;12.35;39.38
44044;BME280;29709;52.396;16.796;2023-04-26T11:59:43;101489.96;;;12.36;40.00
44044;BME280;29709;52.396;16.796;2023-04-26T12:02:56;101491.05;;;12.43;39.28
44044;BME280;29709;52.396;16.796;2023-04-26T12:06:15;101493.28;;;12.82;38.44
44044;BME280;29709;52.396;16.796;2023-04-26T12:09:29;101489.77;;;13.06;37.85
44044;BME280;29709;52.396;16.796;2023-04-26T12:12:46;101494.95;;;13.09;36.32
44044;BME280;29709;52.396;16.796;2023-04-26T12:16:09;101482.62;;;12.87;36.96
44044;BME280;29709;52.396;16.796;2023-04-26T12:19:22;101484.09;;;12.65;37.43
44044;BME280;29709;52.396;16.796;2023-04-26T12:22:36;101491.62;;;12.55;37.99
44044;BME280;29709;52.396;16.796;2023-04-26T12:25:53;101494.83;;;12.42;37.97
44044;BME280;29709;52.396;16.796;2023-04-26T12:29:07;101499.90;;;12.29;38.14
44044;BME280;29709;52.396;16.796;2023-04-26T12:32:21;101497.58;;;12.16;38.75
44044;BME280;29709;52.396;16.796;2023-04-26T12:35:34;101503.20;;;12.06;39.18
44044;BME280;29709;52.396;16.796;2023-04-26T12:38:48;101506.65;;;12.08;38.33
44044;BME280;29709;52.396;16.796;2023-04-26T12:42:02;101493.39;;;12.30;38.85
44044;BME280;29709;52.396;16.796;2023-04-26T12:45:16;101491.52;;;12.38;38.54
44044;BME280;29709;52.396;16.796;2023-04-26T12:48:31;101493.69;;;12.27;37.94
44044;BME280;29709;52.396;16.796;2023-04-26T12:51:44;101498.24;;;12.10;38.84
44044;BME280;29709;52.396;16.796;2023-04-26T12:54:58;101503.86;;;12.00;38.27
44044;BME280;29709;52.396;16.796;2023-04-26T12:58:11;101500.07;;;12.01;38.98
44044;BME280;29709;52.396;16.796;2023-04-26T13:01:25;101500.38;;;11.98;39.12
44044;BME280;29709;52.396;16.796;2023-04-26T13:04:38;101502.36;;;12.32;39.76
44044;BME280;29709;52.396;16.796;2023-04-26T13:07:51;101506.34;;;12.37;39.27
44044;BME280;29709;52.396;16.796;2023-04-26T13:11:05;101508.34;;;12.27;39.72
44044;BME280;29709;52.396;16.796;2023-04-26T13:14:18;101513.32;;;12.24;40.12
44044;BME280;29709;52.396;16.796;2023-04-26T13:17:32;101515.25;;;12.05;40.07
44044;BME280;29709;52.396;16.796;2023-04-26T13:20:45;101517.79;;;11.99;41.07
44044;BME280;29709;52.396;16.796;2023-04-26T13:23:59;101511.79;;;12.03;40.75
44044;BME280;29709;52.396;16.796;2023-04-26T13:27:13;101518.79;;;11.98;40.49
44044;BME280;29709;52.396;16.796;2023-04-26T13:30:26;101523.69;;;11.86;40.79
44044;BME280;29709;52.396;16.796;2023-04-26T13:33:39;101530.23;;;11.85;41.37
44044;BME280;29709;52.396;16.796;2023-04-26T13:36:54;101533.02;;;11.75;41.16
44044;BME280;29709;52.396;16.796;2023-04-26T13:40:09;101527.31;;;11.69;41.20
44044;BME280;29709;52.396;16.796;2023-04-26T13:43:23;101534.92;;;11.75;41.61
44044;BME280;29709;52.396;16.796;2023-04-26T13:46:36;101531.25;;;11.84;41.35
44044;BME280;29709;52.396;16.796;2023-04-26T13:49:50;101529.89;;;12.06;40.98
44044;BME280;29709;52.396;16.796;2023-04-26T13:53:03;101530.62;;;12.34;39.16
44044;BME280;29709;52.396;16.796;2023-04-26T13:56:16;101526.55;;;12.80;39.78
44044;BME280;29709;52.396;16.796;2023-04-26T13:59:31;101519.52;;;12.86;37.77
44044;BME280;29709;52.396;16.796;2023-04-26T14:02:44;101526.80;;;12.61;38.95
44044;BME280;29709;52.396;16.796;2023-04-26T14:05:57;101531.84;;;12.39;39.28
44044;BME280;29709;52.396;16.796;2023-04-26T14:09:11;101537.32;;;12.31;39.83
44044;BME280;29709;52.396;16.796;2023-04-26T14:12:25;101538.75;;;12.18;39.28
44044;BME280;29709;52.396;16.796;2023-04-26T14:15:38;101551.23;;;12.04;39.24
44044;BME280;29709;52.396;16.796;2023-04-26T14:18:51;101538.66;;;11.83;38.60
44044;BME280;29709;52.396;16.796;2023-04-26T14:22:04;101546.05;;;11.83;38.67
44044;BME280;29709;52.396;16.796;2023-04-26T14:25:17;101548.31;;;11.88;38.67
44044;BME280;29709;52.396;16.796;2023-04-26T14:28:30;101548.81;;;11.83;38.07
44044;BME280;29709;52.396;16.796;2023-04-26T14:31:44;101550.00;;;11.80;38.17
44044;BME280;29709;52.396;16.796;2023-04-26T14:34:57;101550.94;;;11.89;38.23
44044;BME280;29709;52.396;16.796;2023-04-26T14:38:11;101548.31;;;11.88;38.08
44044;BME280;29709;52.396;16.796;2023-04-26T14:41:24;101548.10;;;11.99;38.66
44044;BME280;29709;52.396;16.796;2023-04-26T14:44:37;101554.12;;;12.20;38.65
44044;BME280;29709;52.396;16.796;2023-04-26T14:47:50;101544.46;;;12.42;38.35
44044;BME280;29709;52.396;16.796;2023-04-26T14:51:03;101553.48;;;12.52;37.88
44044;BME280;29709;52.396;16.796;2023-04-26T14:54:17;101552.76;;;12.50;36.48
44044;BME280;29709;52.396;16.796;2023-04-26T14:57:30;101549.57;;;12.37;36.62
44044;BME280;29709;52.396;16.796;2023-04-26T15:00:44;101551.97;;;12.32;37.83
44044;BME280;29709;52.396;16.796;2023-04-26T15:03:57;101551.80;;;12.33;37.96
44044;BME280;29709;52.396;16.796;2023-04-26T15:07:11;101560.63;;;12.19;38.66
44044;BME280;29709;52.396;16.796;2023-04-26T15:10:24;101565.08;;;12.12;39.25
44044;BME280;29709;52.396;16.796;2023-04-26T15:13:37;101564.47;;;12.00;39.36
44044;BME280;29709;52.396;16.796;2023-04-26T15:16:50;101569.35;;;11.89;40.46
44044;BME280;29709;52.396;16.796;2023-04-26T15:20:04;101584.88;;;11.62;40.59
44044;BME280;29709;52.396;16.796;2023-04-26T15:23:18;101568.51;;;11.43;40.85
44044;BME280;29709;52.396;16.796;2023-04-26T15:26:31;101576.05;;;11.41;41.26
44044;BME280;29709;52.396;16.796;2023-04-26T15:29:45;101567.56;;;11.52;40.97
44044;BME280;29709;52.396;16.796;2023-04-26T15:32:58;101565.70;;;11.70;40.86
44044;BME280;29709;52.396;16.796;2023-04-26T15:36:13;101577.37;;;11.82;41.06
44044;BME280;29709;52.396;16.796;2023-04-26T15:39:28;101576.39;;;11.73;40.71
44044;BME280;29709;52.396;16.796;2023-04-26T15:42:41;101565.68;;;11.52;40.92
44044;BME280;29709;52.396;16.796;2023-04-26T15:45:54;101577.88;;;11.50;40.65
44044;BME280;29709;52.396;16.796;2023-04-26T15:49:08;101569.55;;;11.60;40.76
44044;BME280;29709;52.396;16.796;2023-04-26T15:52:21;101576.72;;;11.70;40.63
44044;BME280;29709;52.396;16.796;2023-04-26T15:55:34;101573.17;;;11.60;40.32
44044;BME280;29709;52.396;16.796;2023-04-26T15:58:47;101581.88;;;11.55;40.20
44044;BME280;29709;52.396;16.796;2023-04-26T16:02:02;101574.80;;;11.53;40.62
44044;BME280;29709;52.396;16.796;2023-04-26T16:05:16;101572.91;;;11.53;40.95
44044;BME280;29709;52.396;16.796;2023-04-26T16:08:30;101587.05;;;11.41;40.89
44044;BME280;29709;52.396;16.796;2023-04-26T16:11:43;101589.39;;;11.36;41.22
44044;BME280;29709;52.396;16.796;2023-04-26T16:14:57;101595.27;;;11.23;41.31
44044;BME280;29709;52.396;16.796;2023-04-26T16:18:10;101601.84;;;11.12;42.30
44044;BME280;29709;52.396;16.796;2023-04-26T16:21:23;101602.63;;;11.05;42.23
44044;BME280;29709;52.396;16.796;2023-04-26T16:24:36;101610.61;;;10.98;42.60
44044;BME280;29709;52.396;16.796;2023-04-26T16:27:50;101614.84;;;10.83;42.91
44044;BME280;29709;52.396;16.796;2023-04-26T16:31:04;101619.63;;;10.81;43.38
44044;BME280;29709;52.396;16.796;2023-04-26T16:34:18;101611.98;;;10.84;43.75
44044;BME280;29709;52.396;16.796;2023-04-26T16:37:31;101617.63;;;10.73;44.18
44044;BME280;29709;52.396;16.796;2023-04-26T16:44:13;101615.00;;;10.81;44.93
44044;BME280;29709;52.396;16.796;2023-04-26T16:47:28;101618.02;;;10.88;44.63
44044;BME280;29709;52.396;16.796;2023-04-26T16:50:41;101623.22;;;10.91;44.61
44044;BME280;29709;52.396;16.796;2023-04-26T16:53:54;101614.66;;;10.94;44.30
44044;BME280;29709;52.396;16.796;2023-04-26T16:57:08;101616.54;;;10.93;43.90
44044;BME280;29709;52.396;16.796;2023-04-26T17:00:23;101619.80;;;10.79;43.19
44044;BME280;29709;52.396;16.796;2023-04-26T17:03:37;101614.50;;;10.58;44.02
44044;BME280;29709;52.396;16.796;2023-04-26T17:06:50;101628.95;;;10.60;43.71
44044;BME280;29709;52.396;16.796;2023-04-26T17:10:04;101615.83;;;10.54;44.00
44044;BME280;29709;52.396;16.796;2023-04-26T17:13:17;101633.02;;;10.56;43.79
44044;BME280;29709;52.396;16.796;2023-04-26T17:16:30;101636.20;;;10.52;43.68
44044;BME280;29709;52.396;16.796;2023-04-26T17:19:44;101632.89;;;10.48;44.17
44044;BME280;29709;52.396;16.796;2023-04-26T17:22:58;101633.75;;;10.49;44.35
44044;BME280;29709;52.396;16.796;2023-04-26T17:26:11;101638.85;;;10.44;44.11